createdAt,value
2023-03-03T00:00:36.397Z,152.77
2023-03-03T00:01:38.581Z,160.55
2023-03-03T00:02:43.863Z,157.43
2023-03-03T00:03:48.958Z,152.05
2023-03-03T00:04:54.010Z,143.85
2023-03-03T00:05:56.355Z,156.93
2023-03-03T00:07:01.420Z,148.02
2023-03-03T00:08:04.555Z,159.23
2023-03-03T00:09:10.035Z,159.02
2023-03-03T00:10:13.635Z,170.75
2023-03-03T00:11:18.732Z,158.48
2023-03-03T00:12:25.000Z,149.13
2023-03-03T00:13:32.607Z,157.55
2023-03-03T00:14:35.097Z,151.05
2023-03-03T00:15:40.143Z,158.60
2023-03-03T00:16:43.265Z,151.52
2023-03-03T00:17:51.682Z,144.07
2023-03-03T00:19:01.448Z,141.95
2023-03-03T00:20:29.239Z,142.88
2023-03-03T00:21:35.831Z,137.95
2023-03-03T00:22:38.535Z,156.38
2023-03-03T00:25:21.994Z,149.25
2023-03-03T00:26:38.376Z,147.38
2023-03-03T00:27:40.656Z,142.02
2023-03-03T00:28:50.149Z,144.60
2023-03-03T00:29:54.610Z,146.90
2023-03-03T00:31:04.013Z,149.02
2023-03-03T00:32:23.230Z,137.80
2023-03-03T00:33:32.740Z,137.82
2023-03-03T00:34:37.910Z,147.75
2023-03-03T00:35:43.402Z,148.77
2023-03-03T00:36:47.510Z,150.27
2023-03-03T00:37:57.786Z,145.82
2023-03-03T00:39:19.620Z,149.82
2023-03-03T00:40:27.325Z,146.18
2023-03-03T00:41:29.769Z,154.68
2023-03-03T00:42:38.947Z,147.52
2023-03-03T00:43:41.650Z,150.93
2023-03-03T00:44:49.023Z,152.90
2023-03-03T00:45:53.001Z,151.23
2023-03-03T00:46:59.954Z,152.00
2023-03-03T00:48:17.332Z,146.13
2023-03-03T00:49:31.834Z,152.68
2023-03-03T00:50:44.035Z,153.70
2023-03-03T00:51:49.559Z,153.95
2023-03-03T00:53:01.550Z,143.65
2023-03-03T00:54:06.620Z,160.23
2023-03-03T00:55:09.442Z,146.40
2023-03-03T00:56:14.974Z,151.90
2023-03-03T00:57:17.357Z,153.45
2023-03-03T00:58:24.406Z,169.35
2023-03-03T00:59:27.005Z,162.88
2023-03-03T01:00:34.159Z,151.65
2023-03-03T01:01:36.710Z,169.65
2023-03-03T01:02:47.064Z,162.30
2023-03-03T01:03:53.421Z,172.27
2023-03-03T01:04:56.669Z,170.63
2023-03-03T01:06:04.298Z,167.43
2023-03-03T01:07:06.657Z,169.75
2023-03-03T01:08:11.999Z,169.57
2023-03-03T01:09:14.513Z,168.15
2023-03-03T01:10:19.910Z,171.25
2023-03-03T01:11:25.358Z,179.98
2023-03-03T01:12:30.656Z,184.55
2023-03-03T01:13:37.737Z,174.70
2023-03-03T01:14:43.938Z,163.73
2023-03-03T01:15:49.051Z,179.48
2023-03-03T01:16:51.602Z,185.98
2023-03-03T01:17:59.299Z,180.50
2023-03-03T01:19:01.771Z,171.85
2023-03-03T01:20:08.691Z,172.93
2023-03-03T01:21:17.131Z,185.55
2023-03-03T01:22:19.688Z,186.65
2023-03-03T01:23:25.332Z,181.32
2023-03-03T01:24:30.597Z,177.52
2023-03-03T01:25:35.962Z,169.07
2023-03-03T01:26:38.336Z,183.55
2023-03-03T01:27:45.182Z,168.35
2023-03-03T01:28:47.497Z,178.40
2023-03-03T01:29:52.505Z,179.10
2023-03-03T01:30:58.213Z,166.07
2023-03-03T01:32:00.547Z,179.57
2023-03-03T01:33:05.959Z,176.50
2023-03-03T01:34:08.627Z,176.23
2023-03-03T01:35:13.804Z,174.15
2023-03-03T01:36:24.252Z,177.23
2023-03-03T01:37:29.789Z,183.63
2023-03-03T01:38:32.402Z,171.63
2023-03-03T01:39:37.602Z,168.10
2023-03-03T01:40:40.116Z,176.90
2023-03-03T01:41:45.976Z,165.55
2023-03-03T01:42:48.370Z,162.27
2023-03-03T01:43:55.956Z,167.95
2023-03-03T01:45:17.248Z,157.82
2023-03-03T01:46:40.103Z,152.88
2023-03-03T01:47:47.986Z,162.32
2023-03-03T01:48:55.011Z,169.82
2023-03-03T01:50:03.785Z,162.85
2023-03-03T01:51:14.691Z,176.35
2023-03-03T01:52:28.017Z,174.10
2023-03-03T01:53:40.259Z,160.05
2023-03-03T01:54:46.038Z,160.85
2023-03-03T01:55:53.315Z,163.23
2023-03-03T01:56:59.877Z,155.73
2023-03-03T01:58:09.017Z,155.70
2023-03-03T01:59:16.886Z,157.90
2023-03-03T02:00:24.006Z,160.57
2023-03-03T02:01:28.998Z,152.35
2023-03-03T02:02:35.552Z,142.48
2023-03-03T02:03:37.966Z,135.80
2023-03-03T02:04:43.488Z,143.70
2023-03-03T02:05:45.970Z,130.40
2023-03-03T02:06:55.608Z,136.82
2023-03-03T02:08:01.654Z,139.73
2023-03-03T02:09:14.933Z,127.00
2023-03-03T02:10:20.106Z,118.72
2023-03-03T02:11:25.772Z,130.52
2023-03-03T02:12:34.240Z,124.63
2023-03-03T02:13:39.374Z,121.13
2023-03-03T02:14:41.851Z,125.15
2023-03-03T02:15:47.202Z,130.10
2023-03-03T02:16:49.523Z,131.45
2023-03-03T02:17:58.148Z,133.65
2023-03-03T02:19:00.651Z,133.52
2023-03-03T02:20:16.171Z,136.80
2023-03-03T02:21:21.159Z,130.90
2023-03-03T02:22:36.093Z,132.73
2023-03-03T02:23:50.597Z,135.00
2023-03-03T02:25:00.398Z,132.00
2023-03-03T02:26:16.800Z,131.65
2023-03-03T02:27:22.063Z,141.77
2023-03-03T02:28:27.176Z,135.18
2023-03-03T02:29:32.365Z,133.65
2023-03-03T02:30:38.165Z,133.75
2023-03-03T02:31:44.384Z,128.75
2023-03-03T02:32:46.775Z,124.93
2023-03-03T02:33:55.300Z,132.07
2023-03-03T02:34:57.463Z,122.57
2023-03-03T02:36:02.974Z,126.93
2023-03-03T02:37:05.450Z,125.10
2023-03-03T02:38:20.722Z,122.72
2023-03-03T02:39:25.552Z,113.93
2023-03-03T02:40:36.848Z,127.53
2023-03-03T02:41:47.343Z,124.45
2023-03-03T02:42:56.589Z,114.60
2023-03-03T02:44:01.938Z,112.15
2023-03-03T02:45:07.305Z,117.72
2023-03-03T02:46:09.518Z,111.00
2023-03-03T02:47:14.633Z,110.20
2023-03-03T02:48:16.868Z,113.07
2023-03-03T02:49:24.196Z,110.75
2023-03-03T02:50:26.509Z,105.57
2023-03-03T02:51:31.445Z,104.05
2023-03-03T02:52:33.790Z,110.03
2023-03-03T02:53:39.139Z,111.78
2023-03-03T02:54:41.596Z,106.22
2023-03-03T02:55:49.139Z,103.15
2023-03-03T02:56:54.812Z,117.63
2023-03-03T02:58:02.000Z,101.75
2023-03-03T02:59:04.473Z,108.78
2023-03-03T03:00:11.455Z,107.22
2023-03-03T03:01:13.867Z,104.32
2023-03-03T03:02:19.847Z,112.00
2023-03-03T03:03:22.237Z,109.03
2023-03-03T03:04:29.297Z,102.40
2023-03-03T03:05:31.643Z,106.95
2023-03-03T03:06:39.824Z,113.05
2023-03-03T03:07:42.320Z,105.03
2023-03-03T03:08:47.430Z,103.20
2023-03-03T03:09:50.523Z,110.40
2023-03-03T03:10:57.419Z,109.45
2023-03-03T03:12:02.930Z,110.85
2023-03-03T03:13:08.079Z,100.78
2023-03-03T03:14:12.572Z,112.10
2023-03-03T03:15:18.178Z,105.57
2023-03-03T03:16:20.880Z,109.70
2023-03-03T03:17:25.918Z,108.75
2023-03-03T03:18:29.169Z,107.88
2023-03-03T03:19:34.294Z,113.75
2023-03-03T03:20:37.548Z,107.82
2023-03-03T03:21:43.032Z,113.10
2023-03-03T03:22:45.672Z,113.80
2023-03-03T03:23:53.150Z,123.60
2023-03-03T03:24:55.587Z,111.13
2023-03-03T03:26:01.374Z,119.85
2023-03-03T03:27:09.358Z,116.40
2023-03-03T03:28:12.735Z,116.78
2023-03-03T03:29:18.743Z,122.50
2023-03-03T03:30:21.007Z,123.22
2023-03-03T03:31:26.718Z,132.65
2023-03-03T03:32:29.576Z,130.05
2023-03-03T03:33:35.092Z,114.40
2023-03-03T03:34:37.523Z,117.60
2023-03-03T03:35:46.031Z,121.85
2023-03-03T03:36:48.552Z,125.22
2023-03-03T03:37:54.334Z,127.05
2023-03-03T03:38:57.002Z,130.73
2023-03-03T03:40:02.072Z,132.25
2023-03-03T03:41:06.057Z,123.53
2023-03-03T03:42:13.969Z,131.10
2023-03-03T03:43:16.579Z,126.05
2023-03-03T03:44:22.162Z,120.40
2023-03-03T03:45:24.734Z,108.60
2023-03-03T03:46:30.492Z,102.18
2023-03-03T03:47:32.724Z,101.22
2023-03-03T03:48:38.789Z,93.28
2023-03-03T03:49:41.549Z,95.97
2023-03-03T03:50:46.600Z,90.13
2023-03-03T03:51:48.890Z,96.07
2023-03-03T03:52:54.069Z,93.07
2023-03-03T03:53:56.356Z,87.18
2023-03-03T03:55:06.287Z,95.22
2023-03-03T03:56:08.817Z,90.75
2023-03-03T03:57:18.680Z,94.70
2023-03-03T03:58:21.248Z,95.18
2023-03-03T03:59:26.817Z,91.70
2023-03-03T04:00:29.217Z,96.70
2023-03-03T04:01:34.020Z,88.60
2023-03-03T04:02:36.676Z,92.80
2023-03-03T04:03:41.647Z,84.05
2023-03-03T04:04:43.805Z,83.13
2023-03-03T04:05:49.012Z,86.60
2023-03-03T04:06:52.081Z,90.65
2023-03-03T04:07:57.494Z,87.78
2023-03-03T04:08:59.782Z,86.72
2023-03-03T04:10:05.081Z,85.15
2023-03-03T04:11:07.614Z,102.95
2023-03-03T04:12:16.508Z,96.35
2023-03-03T04:13:18.793Z,99.57
2023-03-03T04:14:23.689Z,90.18
2023-03-03T04:15:26.112Z,88.65
2023-03-03T04:16:33.806Z,96.72
2023-03-03T04:17:36.095Z,98.07
2023-03-03T04:18:41.263Z,107.75
2023-03-03T04:19:43.821Z,118.78
2023-03-03T04:20:49.423Z,101.28
2023-03-03T04:21:52.349Z,107.28
2023-03-03T04:22:57.530Z,97.57
2023-03-03T04:24:00.034Z,101.22
2023-03-03T04:25:05.991Z,100.93
2023-03-03T04:26:08.485Z,105.78
2023-03-03T04:27:16.326Z,106.10
2023-03-03T04:28:18.586Z,106.32
2023-03-03T04:29:24.325Z,105.68
2023-03-03T04:30:27.766Z,107.90
2023-03-03T04:31:33.092Z,118.15
2023-03-03T04:32:38.488Z,105.05
2023-03-03T04:33:46.104Z,104.75
2023-03-03T04:34:53.128Z,111.50
2023-03-03T04:36:03.695Z,107.60
2023-03-03T04:37:08.632Z,103.65
2023-03-03T04:38:10.899Z,109.60
2023-03-03T04:39:18.047Z,111.35
2023-03-03T04:40:20.633Z,129.82
2023-03-03T04:41:28.656Z,123.22
2023-03-03T04:42:34.330Z,131.80
2023-03-03T04:43:39.291Z,132.10
2023-03-03T04:44:41.693Z,130.50
2023-03-03T04:45:47.491Z,133.77
2023-03-03T04:46:49.638Z,127.55
2023-03-03T04:47:54.673Z,129.77
2023-03-03T04:48:57.092Z,132.75
2023-03-03T04:50:02.119Z,131.07
2023-03-03T04:51:04.861Z,127.07
2023-03-03T04:52:10.292Z,120.38
2023-03-03T04:53:12.653Z,125.53
2023-03-03T04:54:18.740Z,103.80
2023-03-03T04:55:20.939Z,109.32
2023-03-03T04:56:25.991Z,117.50
2023-03-03T04:57:28.315Z,109.43
2023-03-03T04:58:36.030Z,118.32
2023-03-03T04:59:38.587Z,113.15
2023-03-03T05:00:43.483Z,118.50
2023-03-03T05:01:46.798Z,123.95
2023-03-03T05:02:53.224Z,108.18
2023-03-03T05:03:55.785Z,105.25
2023-03-03T05:05:00.748Z,98.93
2023-03-03T05:06:03.007Z,100.68
2023-03-03T05:07:08.467Z,104.82
2023-03-03T05:08:10.757Z,94.35
2023-03-03T05:09:16.640Z,93.03
2023-03-03T05:10:19.283Z,98.45
2023-03-03T05:11:24.552Z,94.97
2023-03-03T05:12:27.725Z,89.45
2023-03-03T05:13:36.253Z,96.45
2023-03-03T05:14:38.753Z,95.75
2023-03-03T05:15:43.749Z,95.35
2023-03-03T05:16:46.278Z,97.85
2023-03-03T05:17:53.668Z,98.18
2023-03-03T05:18:55.957Z,90.22
2023-03-03T05:20:01.745Z,93.70
2023-03-03T05:21:04.792Z,99.10
2023-03-03T05:22:11.184Z,90.28
2023-03-03T05:23:13.434Z,96.18
2023-03-03T05:24:18.662Z,96.55
2023-03-03T05:25:22.711Z,93.93
2023-03-03T05:26:27.854Z,101.60
2023-03-03T05:27:30.147Z,95.57
2023-03-03T05:28:37.999Z,98.43
2023-03-03T05:29:40.395Z,88.65
2023-03-03T05:30:45.519Z,96.13
2023-03-03T05:31:47.822Z,89.93
2023-03-03T05:32:52.847Z,90.03
2023-03-03T05:33:55.423Z,87.65
2023-03-03T05:35:00.887Z,104.93
2023-03-03T05:36:11.420Z,103.60
2023-03-03T05:37:16.551Z,91.00
2023-03-03T05:38:18.711Z,89.82
2023-03-03T05:39:23.980Z,79.72
2023-03-03T05:40:29.297Z,85.57
2023-03-03T05:41:37.147Z,81.97
2023-03-03T05:42:39.486Z,83.28
2023-03-03T05:43:49.301Z,92.55
2023-03-03T05:44:51.471Z,78.93
2023-03-03T05:45:59.124Z,86.82
2023-03-03T05:47:01.404Z,90.00
2023-03-03T05:48:06.601Z,77.35
2023-03-03T05:49:09.203Z,91.68
2023-03-03T05:50:15.272Z,93.97
2023-03-03T05:51:17.562Z,94.57
2023-03-03T05:52:22.510Z,95.32
2023-03-03T05:53:24.796Z,85.90
2023-03-03T05:54:29.789Z,86.18
2023-03-03T05:55:32.065Z,88.43
2023-03-03T05:56:37.513Z,85.18
2023-03-03T05:57:39.697Z,93.38
2023-03-03T05:58:48.443Z,91.20
2023-03-03T05:59:50.918Z,91.35
2023-03-03T06:00:56.213Z,92.55
2023-03-03T06:01:58.732Z,88.40
2023-03-03T06:03:04.047Z,88.57
2023-03-03T06:04:06.407Z,91.07
2023-03-03T06:05:12.679Z,98.20
2023-03-03T06:06:17.536Z,85.22
2023-03-03T06:07:22.751Z,85.65
2023-03-03T06:08:28.076Z,90.78
2023-03-03T06:09:30.403Z,93.43
2023-03-03T06:10:35.666Z,87.47
2023-03-03T06:11:37.908Z,94.07
2023-03-03T06:12:42.752Z,99.30
2023-03-03T06:13:47.976Z,103.85
2023-03-03T06:14:55.320Z,98.95
2023-03-03T06:15:57.473Z,94.65
2023-03-03T06:17:02.466Z,96.25
2023-03-03T06:18:05.232Z,102.82
2023-03-03T06:19:10.330Z,106.75
2023-03-03T06:20:12.543Z,97.10
2023-03-03T06:21:17.554Z,97.28
2023-03-03T06:22:19.637Z,94.90
2023-03-03T06:23:25.863Z,97.80
2023-03-03T06:24:31.838Z,98.00
2023-03-03T06:25:39.898Z,91.80
2023-03-03T06:26:45.262Z,109.40
2023-03-03T06:27:47.577Z,94.82
2023-03-03T06:28:55.940Z,102.13
2023-03-03T06:29:58.514Z,104.03
2023-03-03T06:31:03.552Z,95.28
2023-03-03T06:32:08.756Z,99.10
2023-03-03T06:33:11.392Z,103.28
2023-03-03T06:34:16.156Z,94.80
2023-03-03T06:35:18.534Z,102.20
2023-03-03T06:36:25.707Z,101.72
2023-03-03T06:37:27.813Z,95.70
2023-03-03T06:38:32.804Z,99.90
2023-03-03T06:39:35.154Z,104.63
2023-03-03T06:40:40.625Z,98.80
2023-03-03T06:41:42.840Z,97.57
2023-03-03T06:42:47.750Z,101.55
2023-03-03T06:43:53.176Z,114.13
2023-03-03T06:44:58.453Z,102.55
2023-03-03T06:46:00.818Z,108.93
2023-03-03T06:47:06.433Z,107.97
2023-03-03T06:48:08.576Z,113.05
2023-03-03T06:49:13.812Z,113.55
2023-03-03T06:50:22.159Z,107.03
2023-03-03T06:51:27.071Z,121.07
2023-03-03T06:52:32.077Z,112.32
2023-03-03T06:53:35.085Z,122.50
2023-03-03T06:54:39.951Z,108.03
2023-03-03T06:55:45.823Z,117.82
2023-03-03T06:56:49.974Z,125.05
2023-03-03T06:57:56.461Z,115.47
2023-03-03T06:59:04.799Z,105.28
2023-03-03T07:00:20.304Z,101.47
2023-03-03T07:01:22.687Z,103.68
2023-03-03T07:02:27.548Z,101.65
2023-03-03T07:03:34.836Z,96.10
2023-03-03T07:04:39.764Z,102.60
2023-03-03T07:05:42.517Z,99.75
2023-03-03T07:06:47.777Z,98.38
2023-03-03T07:07:49.885Z,100.88
2023-03-03T07:08:58.057Z,93.55
2023-03-03T07:10:01.235Z,94.43
2023-03-03T07:11:15.369Z,103.03
2023-03-03T07:12:23.101Z,107.10
2023-03-03T07:13:30.578Z,99.40
2023-03-03T07:14:44.101Z,104.85
2023-03-03T07:15:50.214Z,99.75
2023-03-03T07:16:59.631Z,120.22
2023-03-03T07:18:02.835Z,107.22
2023-03-03T07:19:08.926Z,110.45
2023-03-03T07:20:19.445Z,107.43
2023-03-03T07:21:26.780Z,118.50
2023-03-03T07:22:31.276Z,95.68
2023-03-03T07:23:42.922Z,106.88
2023-03-03T07:24:46.334Z,102.47
2023-03-03T07:25:51.551Z,102.93
2023-03-03T07:26:58.012Z,90.20
2023-03-03T07:28:16.521Z,102.22
2023-03-03T07:29:24.042Z,96.43
2023-03-03T07:30:33.041Z,102.03
2023-03-03T07:31:38.008Z,82.65
2023-03-03T07:32:47.379Z,94.85
2023-03-03T07:33:49.681Z,96.72
2023-03-03T07:34:57.377Z,94.15
2023-03-03T07:36:01.267Z,90.00
2023-03-03T07:37:13.850Z,102.65
2023-03-03T07:38:23.460Z,118.95
2023-03-03T07:39:40.159Z,117.82
2023-03-03T07:40:48.341Z,101.22
2023-03-03T07:41:53.725Z,104.50
2023-03-03T07:42:55.751Z,114.53
2023-03-03T07:44:07.382Z,130.57
2023-03-03T07:46:44.297Z,93.38
2023-03-03T07:47:46.501Z,102.72
2023-03-03T07:48:51.559Z,105.78
2023-03-03T07:49:59.921Z,113.57
2023-03-03T07:51:10.885Z,103.85
2023-03-03T07:52:35.059Z,111.40
2023-03-03T07:53:38.560Z,119.47
2023-03-03T07:54:46.870Z,120.40
2023-03-03T07:55:50.109Z,115.78
2023-03-03T07:56:55.528Z,123.38
2023-03-03T07:58:06.312Z,119.00
2023-03-03T07:59:22.422Z,112.75
2023-03-03T08:00:57.430Z,114.22
2023-03-03T08:02:38.050Z,95.13
2023-03-03T08:03:49.594Z,113.05
2023-03-03T08:04:54.967Z,119.38
2023-03-03T08:05:57.172Z,108.35
2023-03-03T08:07:03.535Z,128.98
2023-03-03T08:08:20.011Z,89.97
2023-03-03T08:09:40.921Z,90.60
2023-03-03T08:10:52.520Z,103.22
2023-03-03T08:13:04.859Z,70.63
2023-03-03T08:14:11.403Z,63.35
2023-03-03T08:15:28.465Z,80.65
2023-03-03T08:16:40.460Z,68.97
2023-03-03T08:17:43.736Z,83.50
2023-03-03T08:18:53.541Z,79.85
2023-03-03T08:19:56.321Z,89.20
2023-03-03T08:21:04.457Z,85.13
2023-03-03T08:22:14.004Z,96.15
2023-03-03T08:23:20.661Z,105.75
2023-03-03T08:24:22.720Z,96.93
2023-03-03T08:25:29.224Z,104.68
2023-03-03T08:26:34.425Z,90.85
2023-03-03T08:27:36.676Z,82.85
2023-03-03T08:28:42.032Z,98.68
2023-03-03T08:29:44.324Z,98.90
2023-03-03T08:30:49.991Z,146.15
2023-03-03T08:31:52.133Z,70.07
2023-03-03T08:32:57.562Z,88.78
2023-03-03T08:34:05.840Z,68.60
2023-03-03T08:35:09.022Z,65.57
2023-03-03T08:36:14.448Z,70.70
2023-03-03T08:37:16.704Z,65.50
2023-03-03T08:38:24.197Z,66.85
2023-03-03T08:39:26.512Z,74.43
2023-03-03T08:40:31.567Z,61.40
2023-03-03T08:41:36.702Z,62.67
2023-03-03T08:42:38.873Z,67.68
2023-03-03T08:43:45.592Z,64.32
2023-03-03T08:44:47.799Z,66.63
2023-03-03T08:45:54.314Z,69.93
2023-03-03T08:46:56.816Z,76.95
2023-03-03T08:48:05.630Z,68.00
2023-03-03T08:49:10.852Z,68.05
2023-03-03T08:50:17.214Z,82.53
2023-03-03T08:51:22.379Z,79.10
2023-03-03T08:52:24.384Z,77.45
2023-03-03T08:53:29.434Z,77.35
2023-03-03T08:54:31.861Z,73.00
2023-03-03T08:55:37.186Z,62.50
2023-03-03T08:56:39.378Z,74.00
2023-03-03T08:57:44.406Z,73.97
2023-03-03T08:59:01.603Z,71.90
2023-03-03T09:00:08.252Z,67.22
2023-03-03T09:01:13.745Z,68.28
2023-03-03T09:02:18.042Z,65.40
2023-03-03T09:03:23.249Z,60.47
2023-03-03T09:04:28.129Z,60.92
2023-03-03T09:05:33.746Z,56.53
2023-03-03T09:06:37.978Z,62.35
2023-03-03T09:07:47.613Z,62.95
2023-03-03T09:08:50.569Z,66.15
2023-03-03T09:09:55.523Z,61.67
2023-03-03T09:11:03.217Z,57.67
2023-03-03T09:12:14.850Z,62.33
2023-03-03T09:14:22.832Z,69.22
2023-03-03T09:15:29.371Z,59.72
2023-03-03T09:16:40.985Z,66.78
2023-03-03T09:18:51.252Z,66.57
2023-03-03T09:19:58.171Z,66.25
2023-03-03T09:21:03.165Z,61.15
2023-03-03T09:22:19.997Z,59.25
2023-03-03T09:23:33.902Z,65.05
2023-03-03T09:24:39.772Z,60.38
2023-03-03T09:25:42.411Z,61.15
2023-03-03T09:26:53.428Z,70.75
2023-03-03T09:27:55.737Z,62.95
2023-03-03T09:29:18.754Z,60.28
2023-03-03T09:30:34.827Z,65.20
2023-03-03T09:31:43.300Z,69.80
2023-03-03T09:32:46.283Z,57.80
2023-03-03T09:33:55.418Z,62.80
2023-03-03T09:35:02.499Z,60.47
2023-03-03T09:36:22.292Z,55.38
2023-03-03T09:37:32.642Z,57.72
2023-03-03T09:38:41.005Z,56.35
2023-03-03T09:39:47.730Z,57.90
2023-03-03T09:41:05.091Z,58.22
2023-03-03T09:42:48.856Z,56.17
2023-03-03T09:44:01.993Z,48.85
2023-03-03T09:45:42.565Z,61.95
2023-03-03T09:47:01.926Z,55.83
2023-03-03T09:48:23.268Z,58.88
2023-03-03T09:49:35.972Z,58.92
2023-03-03T09:50:49.255Z,50.85
2023-03-03T09:52:16.969Z,55.45
2023-03-03T09:53:35.331Z,49.60
2023-03-03T09:54:54.490Z,53.67
2023-03-03T09:56:07.028Z,52.25
2023-03-03T09:57:15.011Z,50.17
2023-03-03T09:58:37.756Z,54.00
2023-03-03T10:00:12.601Z,51.17
2023-03-03T10:01:36.179Z,54.60
2023-03-03T10:02:53.151Z,52.63
2023-03-03T10:04:37.187Z,51.20
2023-03-03T10:05:54.845Z,53.10
2023-03-03T10:07:20.774Z,58.55
2023-03-03T10:08:40.277Z,52.28
2023-03-03T10:10:00.385Z,57.58
2023-03-03T10:11:13.979Z,51.60
2023-03-03T10:12:29.852Z,53.50
2023-03-03T10:14:02.833Z,53.40
2023-03-03T10:15:23.021Z,49.92
2023-03-03T10:17:05.381Z,53.08
2023-03-03T10:18:26.009Z,55.83
2023-03-03T10:19:51.509Z,47.90
2023-03-03T10:21:07.659Z,52.88
2023-03-03T10:22:24.678Z,50.45
2023-03-03T10:23:46.421Z,46.20
2023-03-03T10:25:16.423Z,53.03
2023-03-03T10:26:45.554Z,52.53
2023-03-03T10:28:12.905Z,55.75
2023-03-03T10:29:35.752Z,55.28
2023-03-03T10:31:04.756Z,52.38
2023-03-03T10:32:34.114Z,52.33
2023-03-03T10:33:52.859Z,51.30
2023-03-03T10:35:22.355Z,72.00
2023-03-03T10:36:49.842Z,59.92
2023-03-03T10:38:15.146Z,67.13
2023-03-03T10:39:36.367Z,45.92
2023-03-03T10:40:46.059Z,45.88
2023-03-03T10:42:04.610Z,52.92
2023-03-03T10:43:32.119Z,41.63
2023-03-03T10:44:54.511Z,46.63
2023-03-03T10:47:39.201Z,55.35
2023-03-03T10:49:05.454Z,47.38
2023-03-03T10:50:20.835Z,52.10
2023-03-03T10:51:41.611Z,47.20
2023-03-03T10:53:01.460Z,56.90
2023-03-03T10:54:21.377Z,68.47
2023-03-03T10:56:03.952Z,58.58
2023-03-03T10:57:29.576Z,75.85
2023-03-03T11:00:06.078Z,67.85
2023-03-03T11:01:24.508Z,91.20
2023-03-03T11:02:58.471Z,43.72
2023-03-03T11:04:23.795Z,59.28
2023-03-03T11:05:49.185Z,48.60
2023-03-03T11:07:09.821Z,46.33
2023-03-03T11:08:20.709Z,56.53
2023-03-03T11:09:49.840Z,44.97
2023-03-03T11:11:08.483Z,53.53
2023-03-03T11:12:33.530Z,57.75
2023-03-03T11:13:48.618Z,60.45
2023-03-03T11:15:00.771Z,52.47
2023-03-03T11:16:28.944Z,61.00
2023-03-03T11:17:57.166Z,46.17
2023-03-03T11:19:38.371Z,53.35
2023-03-03T11:20:51.128Z,80.15
2023-03-03T11:22:14.123Z,44.28
2023-03-03T11:23:51.179Z,47.92
2023-03-03T11:25:18.432Z,50.20
2023-03-03T11:26:39.890Z,51.67
2023-03-03T11:28:16.698Z,48.08
2023-03-03T11:29:43.442Z,46.13
2023-03-03T11:31:04.585Z,42.53
2023-03-03T11:32:23.702Z,53.67
2023-03-03T11:33:56.596Z,40.42
2023-03-03T11:35:19.498Z,55.30
2023-03-03T11:36:37.868Z,58.78
2023-03-03T11:37:58.512Z,37.33
2023-03-03T11:39:10.157Z,51.72
2023-03-03T11:41:41.438Z,65.70
2023-03-03T11:43:06.271Z,61.95
2023-03-03T11:44:24.484Z,58.78
2023-03-03T11:45:37.815Z,47.83
2023-03-03T11:46:50.950Z,53.65
2023-03-03T11:48:10.515Z,45.17
2023-03-03T11:49:18.286Z,41.80
2023-03-03T11:50:38.955Z,56.90
2023-03-03T11:51:54.030Z,41.70
2023-03-03T11:53:22.156Z,46.90
2023-03-03T11:54:45.038Z,46.72
2023-03-03T11:55:58.418Z,49.40
2023-03-03T11:57:17.357Z,49.38
2023-03-03T11:58:28.433Z,50.83
2023-03-03T11:59:58.917Z,44.60
2023-03-03T12:01:09.676Z,38.20
2023-03-03T12:02:29.652Z,40.13
2023-03-03T12:03:38.931Z,51.13
2023-03-03T12:04:45.211Z,56.58
2023-03-03T12:05:58.809Z,59.65
2023-03-03T12:07:20.652Z,48.45
2023-03-03T12:08:48.515Z,47.97
2023-03-03T12:10:02.522Z,50.55
2023-03-03T12:11:12.814Z,57.80
2023-03-03T12:12:19.448Z,35.85
2023-03-03T12:13:32.122Z,35.55
2023-03-03T12:14:54.150Z,48.25
2023-03-03T12:17:19.803Z,693.90
2023-03-03T12:18:54.096Z,58.65
2023-03-03T12:20:07.428Z,755.72
2023-03-03T12:21:35.883Z,921.00
2023-03-03T12:23:05.932Z,877.35
2023-03-03T12:24:29.973Z,943.42
2023-03-03T12:25:40.634Z,649.20
2023-03-03T12:26:51.391Z,52.92
2023-03-03T12:28:03.936Z,206.03
2023-03-03T12:29:13.426Z,421.80
2023-03-03T12:30:29.210Z,496.00
2023-03-03T12:31:47.931Z,64.28
2023-03-03T12:33:08.282Z,51.75
2023-03-03T12:34:21.661Z,47.45
2023-03-03T12:35:35.218Z,47.60
2023-03-03T12:36:59.581Z,45.58
2023-03-03T12:38:16.539Z,41.90
2023-03-03T12:39:45.938Z,43.10
2023-03-03T12:41:00.797Z,51.00
2023-03-03T12:42:43.300Z,57.17
2023-03-03T12:44:01.640Z,35.50
2023-03-03T12:45:27.620Z,42.90
2023-03-03T12:46:47.101Z,42.47
2023-03-03T12:47:52.593Z,62.55
2023-03-03T12:48:57.920Z,51.15
2023-03-03T12:50:19.900Z,42.50
2023-03-03T12:52:48.099Z,47.38
2023-03-03T12:54:37.009Z,55.75
2023-03-03T12:58:38.735Z,48.15
2023-03-03T12:59:56.031Z,46.53
2023-03-03T13:01:09.358Z,56.83
2023-03-03T13:02:49.513Z,56.35
2023-03-03T13:04:07.774Z,55.65
2023-03-03T13:05:25.268Z,56.00
2023-03-03T13:06:30.771Z,42.88
2023-03-03T13:07:46.342Z,41.10
2023-03-03T13:09:09.523Z,59.60
2023-03-03T13:10:24.065Z,34.20
2023-03-03T13:11:43.608Z,46.65
2023-03-03T13:12:54.242Z,118.35
2023-03-03T13:14:08.085Z,54.85
2023-03-03T13:15:31.936Z,50.97
2023-03-03T13:16:41.794Z,50.25
2023-03-03T13:18:00.319Z,54.33
2023-03-03T13:19:10.715Z,46.42
2023-03-03T13:20:24.123Z,46.78
2023-03-03T13:21:35.728Z,56.97
2023-03-03T13:23:54.148Z,56.08
2023-03-03T13:25:03.605Z,52.28
2023-03-03T13:26:14.752Z,50.50
2023-03-03T13:27:24.492Z,48.88
2023-03-03T13:28:43.984Z,44.22
2023-03-03T13:29:57.400Z,62.83
2023-03-03T13:31:09.309Z,43.08
2023-03-03T13:32:22.753Z,52.55
2023-03-03T13:33:30.845Z,55.50
2023-03-03T13:34:46.154Z,50.90
2023-03-03T13:35:57.803Z,56.53
2023-03-03T13:38:17.866Z,40.85
2023-03-03T13:39:26.418Z,48.58
2023-03-03T13:40:37.478Z,54.25
2023-03-03T13:41:49.459Z,42.58
2023-03-03T13:43:03.480Z,44.85
2023-03-03T13:44:15.053Z,52.45
2023-03-03T13:45:27.115Z,41.28
2023-03-03T13:46:47.567Z,37.42
2023-03-03T13:48:01.790Z,57.38
2023-03-03T13:49:23.287Z,64.13
2023-03-03T13:50:35.307Z,62.92
2023-03-03T13:51:50.037Z,64.57
2023-03-03T13:53:10.314Z,34.63
2023-03-03T13:54:39.522Z,51.38
2023-03-03T13:55:49.980Z,55.60
2023-03-03T13:57:14.368Z,42.85
2023-03-03T13:58:34.875Z,46.47
2023-03-03T13:59:52.286Z,38.13
2023-03-03T14:01:03.636Z,49.05
2023-03-03T14:02:21.026Z,43.78
2023-03-03T14:03:55.046Z,40.22
2023-03-03T14:05:02.433Z,38.85
2023-03-03T14:06:15.396Z,42.80
2023-03-03T14:07:27.466Z,42.05
2023-03-03T14:08:44.757Z,47.90
2023-03-03T14:10:02.763Z,75.75
2023-03-03T14:11:14.651Z,40.63
2023-03-03T14:12:29.591Z,37.78
2023-03-03T14:13:47.226Z,41.33
2023-03-03T14:14:58.788Z,46.00
2023-03-03T14:17:24.904Z,50.42
2023-03-03T14:18:37.202Z,38.63
2023-03-03T14:19:45.824Z,46.75
2023-03-03T14:20:54.252Z,43.38
2023-03-03T14:22:07.351Z,54.65
2023-03-03T14:23:22.756Z,39.53
2023-03-03T14:24:30.108Z,39.90
2023-03-03T14:25:53.799Z,40.85
2023-03-03T14:27:00.715Z,44.60
2023-03-03T14:28:14.439Z,36.65
2023-03-03T14:29:35.736Z,52.63
2023-03-03T14:30:40.234Z,35.95
2023-03-03T14:31:48.304Z,37.13
2023-03-03T14:33:01.325Z,42.28
2023-03-03T14:34:19.492Z,47.38
2023-03-03T14:35:22.763Z,42.70
2023-03-03T14:36:33.137Z,36.38
2023-03-03T14:37:44.836Z,39.20
2023-03-03T14:40:15.351Z,55.83
2023-03-03T14:41:24.487Z,44.60
2023-03-03T14:42:48.564Z,49.67
2023-03-03T14:44:02.288Z,39.15
2023-03-03T14:45:29.837Z,63.00
2023-03-03T14:46:38.369Z,47.08
2023-03-03T14:47:50.215Z,46.97
2023-03-03T14:48:54.864Z,38.35
2023-03-03T14:50:03.350Z,42.75
2023-03-03T14:51:29.379Z,47.95
2023-03-03T14:52:37.874Z,62.80
2023-03-03T14:53:47.118Z,56.65
2023-03-03T14:54:54.094Z,67.32
2023-03-03T14:55:56.631Z,37.90
2023-03-03T14:57:06.551Z,54.83
2023-03-03T14:58:31.439Z,45.35
2023-03-03T14:59:36.964Z,44.38
2023-03-03T15:00:45.163Z,42.75
2023-03-03T15:01:48.530Z,48.97
2023-03-03T15:03:09.279Z,41.70
2023-03-03T15:04:25.086Z,36.63
2023-03-03T15:05:31.271Z,41.42
2023-03-03T15:06:43.892Z,44.00
2023-03-03T15:07:50.872Z,40.83